Time;durP1;ratioP1;P1;durP2;ratioP2;P2;SDS_P1;SDS_P2;PMS_P1;PMS_P2;Temp;Humidity;BMP_temperature;BMP_pressure;BME280_temperature;BME280_humidity;BME280_pressure;Samples;Min_cycle;Max_cycle;Signal;HPM_P1;HPM_P2
2023/01/21 00:01:03;;;;;;;64.28;29.77;;;;;;;3.05;100.00;102280.16;5035241;28;20025;-77
2023/01/21 00:03:29;;;;;;;66.25;28.10;;;;;;;2.92;100.00;102283.41;5019090;28;20040;-77
2023/01/21 00:05:57;;;;;;;69.20;28.70;;;;;;;2.53;100.00;102271.97;5026229;28;20025;-77
2023/01/21 00:08:23;;;;;;;66.70;28.88;;;;;;;2.26;100.00;102274.97;5036184;28;20021;-77
2023/01/21 00:10:48;;;;;;;71.90;30.95;;;;;;;2.17;100.00;102270.94;5025003;28;20025;-77
2023/01/21 00:13:14;;;;;;;80.47;32.83;;;;;;;2.37;100.00;102272.69;5018606;28;20116;-77
2023/01/21 00:15:39;;;;;;;66.13;29.75;;;;;;;2.32;100.00;102282.72;5025607;28;20029;-77
2023/01/21 00:18:06;;;;;;;85.50;31.73;;;;;;;2.10;100.00;102284.63;5034300;28;20021;-77
2023/01/21 00:20:31;;;;;;;80.47;32.85;;;;;;;1.97;100.00;102288.78;5027641;28;20026;-77
2023/01/21 00:22:57;;;;;;;76.03;32.20;;;;;;;1.87;100.00;102281.16;5023651;28;20036;-77
2023/01/21 00:25:23;;;;;;;84.30;32.13;;;;;;;1.86;100.00;102281.25;5022549;28;20029;-75
2023/01/21 00:27:48;;;;;;;78.53;32.60;;;;;;;1.89;100.00;102286.44;5028561;28;20021;-77
2023/01/21 00:30:13;;;;;;;72.77;29.00;;;;;;;2.03;100.00;102288.53;5030152;28;20025;-77
2023/01/21 00:32:39;;;;;;;78.17;32.10;;;;;;;2.21;100.00;102295.69;5048991;28;20031;-77
2023/01/21 00:35:05;;;;;;;67.47;30.15;;;;;;;2.27;100.00;102292.75;5020276;28;20045;-77
2023/01/21 00:37:31;;;;;;;76.53;33.28;;;;;;;2.07;100.00;102311.47;5020978;28;20029;-77
2023/01/21 00:39:56;;;;;;;74.22;30.38;;;;;;;2.11;100.00;102315.75;5034834;28;20051;-77
2023/01/21 00:42:22;;;;;;;73.10;31.48;;;;;;;2.00;100.00;102315.34;5017522;28;20033;-76
2023/01/21 00:44:47;;;;;;;92.82;32.97;;;;;;;2.07;100.00;102317.69;5030279;28;20091;-77
2023/01/21 00:47:13;;;;;;;78.03;31.70;;;;;;;2.20;100.00;102328.69;5033206;28;20033;-77
2023/01/21 00:49:38;;;;;;;78.35;32.97;;;;;;;2.31;100.00;102328.22;5026634;28;20033;-77
2023/01/21 00:52:04;;;;;;;65.90;30.00;;;;;;;2.28;100.00;102334.59;5018762;28;20057;-77
2023/01/21 00:54:31;;;;;;;75.68;33.90;;;;;;;2.40;100.00;102331.34;5049097;28;20036;-77
2023/01/21 00:56:57;;;;;;;82.60;29.67;;;;;;;2.40;100.00;102330.47;5032934;28;20124;-77
2023/01/21 00:59:23;;;;;;;70.72;30.95;;;;;;;2.26;100.00;102339.09;5023681;28;20033;-76
2023/01/21 01:01:48;;;;;;;79.45;33.30;;;;;;;2.20;100.00;102344.72;5025054;28;20028;-77
2023/01/21 01:04:14;;;;;;;68.35;30.55;;;;;;;2.32;100.00;102354.00;5018966;28;20064;-77
2023/01/21 01:06:39;;;;;;;66.82;31.55;;;;;;;2.47;100.00;102357.78;5032089;28;20467;-77
2023/01/21 01:09:05;;;;;;;73.15;32.10;;;;;;;2.62;100.00;102359.78;5034011;28;20021;-77
2023/01/21 01:11:30;;;;;;;68.40;30.38;;;;;;;2.37;100.00;102363.56;5030625;28;20082;-78
2023/01/21 01:13:57;;;;;;;77.97;31.15;;;;;;;2.49;100.00;102366.63;5030479;28;20040;-77
2023/01/21 01:16:24;;;;;;;75.47;29.85;;;;;;;2.41;100.00;102365.16;5025452;28;20040;-77
2023/01/21 01:18:51;;;;;;;69.72;30.30;;;;;;;2.30;100.00;102369.25;5033833;28;20028;-77
2023/01/21 01:21:18;;;;;;;69.93;31.83;;;;;;;2.23;100.00;102371.34;5051639;28;20021;-77
2023/01/21 01:23:44;;;;;;;74.68;33.88;;;;;;;2.30;100.00;102361.25;5031924;28;20013;-76
2023/01/21 01:26:13;;;;;;;79.80;33.58;;;;;;;2.52;100.00;102366.47;5023752;28;20159;-76
2023/01/21 01:28:38;;;;;;;73.50;30.63;;;;;;;2.35;100.00;102376.13;5035920;28;20048;-76
2023/01/21 01:31:06;;;;;;;72.97;32.42;;;;;;;2.43;100.00;102371.31;5024661;28;20437;-76
2023/01/21 01:33:35;;;;;;;63.05;30.75;;;;;;;2.40;100.00;102384.78;5019991;28;20021;-77
2023/01/21 01:36:06;;;;;;;72.38;31.85;;;;;;;2.13;100.00;102384.22;5019468;28;20025;-76
2023/01/21 01:38:33;;;;;;;57.47;26.90;;;;;;;2.12;100.00;102394.97;5016940;28;20017;-76
2023/01/21 01:40:59;;;;;;;69.63;32.50;;;;;;;2.28;100.00;102390.72;5029032;28;20052;-76
2023/01/21 01:43:46;;;;;;;69.63;31.63;;;;;;;2.49;100.00;102398.72;5024872;28;20410;-76
2023/01/21 01:46:11;;;;;;;67.22;30.35;;;;;;;2.60;100.00;102399.06;5017547;28;20025;-76
2023/01/21 01:48:38;;;;;;;69.15;32.30;;;;;;;2.65;100.00;102405.09;5022265;28;20083;-76
2023/01/21 01:51:06;;;;;;;60.22;28.63;;;;;;;2.65;100.00;102407.75;5030848;28;20021;-76
2023/01/21 01:53:33;;;;;;;59.28;30.73;;;;;;;2.51;100.00;102412.88;5030829;28;20029;-77
2023/01/21 01:55:59;;;;;;;72.85;33.17;;;;;;;2.66;100.00;102412.16;5016772;28;20043;-76
2023/01/21 01:58:25;;;;;;;62.88;30.48;;;;;;;2.64;100.00;102414.06;5024622;28;20032;-76
2023/01/21 02:00:50;;;;;;;66.25;31.65;;;;;;;2.70;100.00;102419.13;5028743;28;20533;-76
2023/01/21 02:06:01;;;;;;;65.93;31.05;;;;;;;2.64;100.00;102430.09;5029425;28;20023;-75
2023/01/21 02:08:27;;;;;;;63.13;30.80;;;;;;;2.75;100.00;102427.81;5013885;28;20021;-75
2023/01/21 02:10:55;;;;;;;66.78;31.77;;;;;;;2.76;100.00;102434.91;5036734;28;20099;-76
2023/01/21 02:13:23;;;;;;;65.32;29.77;;;;;;;2.64;100.00;102436.31;5036443;28;20029;-76
2023/01/21 02:16:07;;;;;;;60.10;30.65;;;;;;;2.83;100.00;102436.34;5042487;28;20021;-76
2023/01/21 02:18:47;;;;;;;59.60;28.92;;;;;;;2.84;100.00;102440.75;5026982;28;20057;-76
2023/01/21 02:21:29;;;;;;;57.45;28.15;;;;;;;2.75;100.00;102438.50;5060402;28;20460;-76
2023/01/21 02:24:27;;;;;;;63.15;31.10;;;;;;;2.71;100.00;102436.91;5036329;28;20020;-76
2023/01/21 02:27:02;;;;;;;69.65;30.15;;;;;;;2.81;100.00;102438.25;5019754;28;20035;-76
2023/01/21 02:30:09;;;;;;;65.97;32.22;;;;;;;2.83;100.00;102431.00;5027213;28;20437;-76
2023/01/21 02:33:13;;;;;;;64.60;32.30;;;;;;;2.76;100.00;102445.59;5016086;28;20033;-75
2023/01/21 02:35:50;;;;;;;64.05;31.27;;;;;;;2.80;100.00;102436.47;5024191;28;20033;-76
2023/01/21 02:38:18;;;;;;;64.43;30.13;;;;;;;2.53;100.00;102440.41;5023794;28;20478;-76
2023/01/21 02:41:25;;;;;;;63.35;29.45;;;;;;;2.72;100.00;102443.97;5024265;28;20120;-76
2023/01/21 02:44:16;;;;;;;72.93;30.67;;;;;;;2.78;100.00;102438.34;4988992;28;20034;-77
2023/01/21 02:47:05;;;;;;;58.10;30.83;;;;;;;2.84;100.00;102448.78;5022499;28;20021;-77
2023/01/21 02:49:40;;;;;;;71.90;30.98;;;;;;;2.63;100.00;102455.09;5019940;28;20021;-75
2023/01/21 02:52:06;;;;;;;59.28;30.10;;;;;;;2.80;100.00;102449.84;5029219;28;20423;-76
2023/01/21 02:54:37;;;;;;;64.78;30.75;;;;;;;2.69;100.00;102452.16;5016102;28;20103;-75
2023/01/21 02:57:27;;;;;;;63.70;29.17;;;;;;;2.49;100.00;102460.19;5020720;28;20051;-76
2023/01/21 02:59:54;;;;;;;59.00;28.67;;;;;;;2.60;100.00;102455.22;5022741;28;20032;-76
2023/01/21 03:02:49;;;;;;;57.35;28.70;;;;;;;2.65;100.00;102464.78;5040231;28;20112;-76
2023/01/21 03:05:27;;;;;;;58.08;29.38;;;;;;;2.84;100.00;102470.19;5046768;28;20059;-76
2023/01/21 03:08:21;;;;;;;58.40;26.88;;;;;;;2.97;100.00;102476.72;5028632;28;20048;-76
2023/01/21 03:11:03;;;;;;;59.75;27.92;;;;;;;2.94;100.00;102465.31;5030505;28;20032;-76
2023/01/21 03:16:57;;;;;;;61.90;27.65;;;;;;;3.20;100.00;102482.84;5046099;28;20072;-76
2023/01/21 03:19:34;;;;;;;50.70;26.45;;;;;;;3.23;100.00;102477.31;5027323;28;20029;-76
2023/01/21 03:22:04;;;;;;;56.53;27.33;;;;;;;3.11;100.00;102472.53;5026641;28;20017;-76
2023/01/21 03:24:32;;;;;;;56.65;28.85;;;;;;;3.24;100.00;102469.22;5023542;28;20075;-76
2023/01/21 03:27:00;;;;;;;55.15;29.65;;;;;;;3.18;100.00;102479.34;5026830;28;20469;-76
2023/01/21 03:29:29;;;;;;;62.33;30.60;;;;;;;3.25;100.00;102486.13;5041748;28;20055;-76
2023/01/21 03:31:58;;;;;;;57.60;30.02;;;;;;;3.01;100.00;102484.63;5026900;28;20014;-76
2023/01/21 03:34:26;;;;;;;56.22;28.55;;;;;;;3.00;100.00;102481.06;5059785;22;20040;-73
2023/01/21 03:37:16;;;;;;;66.68;32.15;;;;;;;2.91;100.00;102484.16;5092580;28;20039;-73
2023/01/21 03:40:14;;;;;;;66.78;31.92;;;;;;;2.66;100.00;102493.25;5053618;28;20028;-73
2023/01/21 03:42:42;;;;;;;69.60;33.53;;;;;;;2.70;100.00;102504.72;5070415;28;20044;-74
2023/01/21 03:45:09;;;;;;;70.88;32.88;;;;;;;2.44;100.00;102493.34;5071394;28;20032;-74
2023/01/21 03:47:36;;;;;;;90.15;37.83;;;;;;;2.61;100.00;102500.63;5051415;28;20016;-74
2023/01/21 03:50:11;;;;;;;81.30;36.15;;;;;;;2.56;100.00;102502.63;5048260;28;20146;-74
2023/01/21 03:52:44;;;;;;;89.53;38.22;;;;;;;2.60;100.00;102503.34;5038795;28;20464;-74
2023/01/21 03:55:12;;;;;;;106.03;39.42;;;;;;;2.67;100.00;102504.81;5035708;28;20020;-76
2023/01/21 03:57:37;;;;;;;78.88;33.58;;;;;;;2.73;100.00;102501.88;5035956;28;20017;-76
2023/01/21 04:00:04;;;;;;;81.97;34.90;;;;;;;2.70;100.00;102504.72;5036084;28;20358;-76
2023/01/21 04:02:30;;;;;;;87.15;36.40;;;;;;;2.79;100.00;102514.97;5035756;28;20025;-76
2023/01/21 04:04:55;;;;;;;87.05;37.20;;;;;;;2.75;100.00;102513.41;5053166;28;20025;-76
2023/01/21 04:07:20;;;;;;;86.07;36.83;;;;;;;2.81;100.00;102513.13;5035367;28;20116;-76
2023/01/21 04:09:48;;;;;;;82.15;36.45;;;;;;;2.85;100.00;102509.38;5035415;28;20033;-76
2023/01/21 04:12:14;;;;;;;87.90;35.90;;;;;;;2.88;100.00;102514.59;5035111;28;20032;-74
2023/01/21 04:14:39;;;;;;;90.05;36.50;;;;;;;2.79;100.00;102514.97;5035684;28;20385;-75
2023/01/21 04:17:05;;;;;;;94.65;38.35;;;;;;;2.84;100.00;102518.34;5034754;28;20025;-74
2023/01/21 04:19:30;;;;;;;104.95;38.72;;;;;;;2.77;100.00;102524.91;5036102;28;20032;-75
2023/01/21 04:21:56;;;;;;;93.05;37.25;;;;;;;2.69;100.00;102519.00;5034441;28;20409;-75
2023/01/21 04:24:21;;;;;;;77.03;34.40;;;;;;;2.70;100.00;102520.75;5035084;28;20025;-76
2023/01/21 04:26:46;;;;;;;90.47;37.15;;;;;;;2.69;100.00;102524.38;5034758;28;20021;-75
2023/01/21 04:29:12;;;;;;;90.15;38.35;;;;;;;2.71;100.00;102527.84;5035020;28;20100;-75
2023/01/21 04:31:37;;;;;;;93.38;36.60;;;;;;;2.76;100.00;102520.47;5034692;28;20159;-75
2023/01/21 04:34:03;;;;;;;90.15;38.58;;;;;;;2.79;100.00;102531.03;5035039;28;20033;-75
2023/01/21 04:36:28;;;;;;;91.47;38.50;;;;;;;2.78;100.00;102521.28;5034606;28;20021;-75
2023/01/21 04:38:54;;;;;;;86.60;38.25;;;;;;;2.85;100.00;102530.75;5034556;28;20021;-75
2023/01/21 04:41:19;;;;;;;125.30;46.08;;;;;;;2.73;100.00;102536.66;5034743;28;20025;-75
2023/01/21 04:43:44;;;;;;;90.63;37.78;;;;;;;2.55;100.00;102532.13;5034906;28;20032;-75
2023/01/21 04:46:10;;;;;;;107.90;41.80;;;;;;;2.36;100.00;102538.25;5034702;28;20025;-75
2023/01/21 04:48:35;;;;;;;114.00;45.53;;;;;;;2.42;100.00;102543.34;5034760;28;20024;-75
2023/01/21 04:51:01;;;;;;;109.25;41.08;;;;;;;2.56;100.00;102533.84;5035000;28;20036;-75
2023/01/21 04:53:26;;;;;;;109.97;42.72;;;;;;;2.40;100.00;102545.19;5034697;28;20064;-75
2023/01/21 04:55:52;;;;;;;117.75;41.63;;;;;;;2.30;100.00;102538.50;5034106;28;20447;-75
2023/01/21 04:58:19;;;;;;;135.38;47.92;;;;;;;2.43;100.00;102539.72;5034482;28;20032;-74
2023/01/21 05:00:44;;;;;;;123.00;44.45;;;;;;;2.53;100.00;102550.00;5034647;28;20389;-74
2023/01/21 05:03:09;;;;;;;133.75;47.75;;;;;;;2.62;100.00;102555.00;5051988;28;20028;-74
2023/01/21 05:05:35;;;;;;;146.00;48.35;;;;;;;2.59;100.00;102557.78;5034087;28;20081;-76
2023/01/21 05:08:00;;;;;;;146.48;49.50;;;;;;;2.65;100.00;102560.19;5034259;28;20032;-74
2023/01/21 05:10:25;;;;;;;136.48;46.08;;;;;;;2.55;100.00;102561.53;5033777;28;20029;-74
2023/01/21 05:12:51;;;;;;;161.45;49.67;;;;;;;2.57;100.00;102567.69;5034041;28;20025;-75
2023/01/21 05:15:16;;;;;;;148.00;49.75;;;;;;;2.36;100.00;102564.97;5033614;28;20032;-75
2023/01/21 05:17:42;;;;;;;149.27;48.92;;;;;;;2.59;100.00;102569.34;5033745;28;20025;-76
2023/01/21 05:20:08;;;;;;;154.77;49.15;;;;;;;2.52;100.00;102569.66;5033984;28;20490;-75
2023/01/21 05:22:33;;;;;;;169.57;50.63;;;;;;;2.33;100.00;102581.13;5033276;28;20025;-75
2023/01/21 05:24:59;;;;;;;184.00;54.83;;;;;;;2.50;100.00;102592.94;5033971;28;20051;-75
2023/01/21 05:27:25;;;;;;;175.45;51.90;;;;;;;2.52;100.00;102601.75;5033520;28;20092;-75
2023/01/21 05:29:51;;;;;;;210.63;57.50;;;;;;;2.41;100.00;102599.50;5034080;28;20067;-75
2023/01/21 05:32:17;;;;;;;176.23;53.10;;;;;;;2.53;100.00;102600.81;5033834;28;20053;-75
2023/01/21 05:34:42;;;;;;;173.15;52.10;;;;;;;2.62;100.00;102603.13;5034558;28;20021;-75
2023/01/21 05:37:09;;;;;;;146.60;51.13;;;;;;;2.67;100.00;102610.03;5034395;28;20078;-75
2023/01/21 05:39:34;;;;;;;177.05;55.42;;;;;;;2.68;100.00;102608.22;5067577;28;20024;-75
2023/01/21 05:42:00;;;;;;;215.20;57.70;;;;;;;2.52;100.00;102617.78;5063407;28;20158;-76
2023/01/21 05:44:25;;;;;;;156.85;47.72;;;;;;;2.69;100.00;102615.28;5054471;28;20028;-75
2023/01/21 05:46:50;;;;;;;191.30;53.83;;;;;;;2.60;100.00;102621.00;5071397;28;20016;-76
2023/01/21 05:49:16;;;;;;;168.60;53.75;;;;;;;2.34;100.00;102620.28;5088137;28;20080;-76
2023/01/21 05:51:41;;;;;;;160.05;48.83;;;;;;;2.34;100.00;102625.63;5072256;28;20029;-76
2023/01/21 05:54:07;;;;;;;193.52;54.60;;;;;;;2.13;100.00;102619.34;5045847;28;20028;-76
2023/01/21 05:56:32;;;;;;;157.15;50.17;;;;;;;2.19;100.00;102626.25;5053599;28;20028;-76
2023/01/21 05:58:57;;;;;;;179.38;53.70;;;;;;;2.36;100.00;102639.81;5054166;28;20116;-76
2023/01/21 06:01:23;;;;;;;167.68;50.22;;;;;;;2.33;100.00;102628.38;5054265;28;20024;-76
2023/01/21 06:03:48;;;;;;;173.07;53.17;;;;;;;2.56;100.00;102636.34;5070902;28;20103;-76
2023/01/21 06:06:13;;;;;;;175.98;54.40;;;;;;;2.53;100.00;102640.91;5048736;28;20021;-76
2023/01/21 06:08:39;;;;;;;179.23;54.53;;;;;;;2.40;100.00;102646.75;5050251;28;20020;-76
2023/01/21 06:11:04;;;;;;;167.30;52.33;;;;;;;2.41;100.00;102648.53;5054811;28;20044;-76
2023/01/21 06:13:30;;;;;;;160.65;50.60;;;;;;;2.24;100.00;102651.00;5059013;28;20036;-76
2023/01/21 06:15:56;;;;;;;177.15;51.90;;;;;;;2.17;100.00;102654.84;5042025;28;20115;-76
2023/01/21 06:18:22;;;;;;;193.50;55.42;;;;;;;2.15;100.00;102662.03;5064078;28;20064;-76
2023/01/21 06:20:48;;;;;;;181.82;53.28;;;;;;;2.25;100.00;102668.78;5043554;28;20017;-76
2023/01/21 06:23:13;;;;;;;167.02;51.35;;;;;;;2.17;100.00;102666.41;5061644;28;20042;-76
2023/01/21 06:25:39;;;;;;;148.57;47.00;;;;;;;2.17;100.00;102670.88;5053693;28;20032;-75
2023/01/21 06:28:05;;;;;;;148.50;46.90;;;;;;;2.08;100.00;102671.22;5033376;28;20028;-76
2023/01/21 06:30:31;;;;;;;158.27;51.53;;;;;;;1.97;100.00;102662.78;5048830;28;20025;-76
2023/01/21 06:32:56;;;;;;;144.35;49.47;;;;;;;2.06;100.00;102683.78;5059220;28;20078;-76
2023/01/21 06:35:22;;;;;;;141.57;48.35;;;;;;;2.14;100.00;102681.69;5053370;28;20064;-76
2023/01/21 06:37:47;;;;;;;122.22;42.25;;;;;;;2.13;100.00;102686.16;5043947;28;20052;-76
2023/01/21 06:40:12;;;;;;;121.68;44.80;;;;;;;2.12;100.00;102688.88;5037494;28;20082;-76
2023/01/21 06:42:38;;;;;;;126.35;43.90;;;;;;;2.27;100.00;102688.28;5070992;28;20036;-76
2023/01/21 06:45:04;;;;;;;107.30;41.05;;;;;;;2.24;100.00;102698.25;5061800;28;20025;-76
2023/01/21 06:47:29;;;;;;;111.15;39.50;;;;;;;2.25;100.00;102690.16;5043671;28;20449;-75
2023/01/21 06:49:54;;;;;;;121.45;45.10;;;;;;;2.31;100.00;102689.91;5056749;28;20031;-76
2023/01/21 06:52:21;;;;;;;126.30;41.63;;;;;;;2.43;100.00;102692.09;5063403;28;20025;-75
2023/01/21 06:54:47;;;;;;;118.07;41.58;;;;;;;2.62;100.00;102688.69;5056841;28;20035;-75
2023/01/21 06:57:12;;;;;;;111.63;42.22;;;;;;;2.50;100.00;102699.88;5074653;28;20032;-75
2023/01/21 06:59:38;;;;;;;116.63;41.55;;;;;;;2.47;100.00;102708.00;5041011;28;20032;-76
2023/01/21 07:02:03;;;;;;;95.10;35.58;;;;;;;2.56;100.00;102705.84;5052950;28;20028;-75
2023/01/21 07:04:29;;;;;;;102.35;40.00;;;;;;;2.60;100.00;102703.91;5051571;28;20028;-75
2023/01/21 07:06:54;;;;;;;108.03;40.13;;;;;;;2.48;100.00;102717.75;5056659;28;20027;-75
2023/01/21 07:09:20;;;;;;;126.20;43.20;;;;;;;2.40;100.00;102705.56;5056401;28;20495;-75
2023/01/21 07:11:45;;;;;;;135.73;45.33;;;;;;;2.47;100.00;102726.72;5056632;28;20039;-76
2023/01/21 07:14:11;;;;;;;111.68;41.63;;;;;;;2.41;100.00;102712.69;5094890;28;20059;-76
2023/01/21 07:16:36;;;;;;;134.02;44.47;;;;;;;2.31;100.00;102716.66;5069692;28;20028;-76
2023/01/21 07:19:02;;;;;;;129.48;44.95;;;;;;;2.28;100.00;102738.16;5056451;28;20032;-76
2023/01/21 07:21:28;;;;;;;117.30;41.78;;;;;;;2.39;100.00;102738.59;5074366;28;20051;-76
2023/01/21 07:23:54;;;;;;;113.82;39.78;;;;;;;2.35;100.00;102734.31;5083783;28;20495;-76
2023/01/21 07:26:20;;;;;;;118.97;44.55;;;;;;;2.51;100.00;102752.44;5063154;28;20032;-76
2023/01/21 07:28:45;;;;;;;124.10;43.50;;;;;;;2.58;100.00;102753.91;5056669;28;20033;-76
2023/01/21 07:31:10;;;;;;;134.05;45.65;;;;;;;2.54;100.00;102762.97;5056241;28;20029;-76
2023/01/21 07:33:36;;;;;;;124.97;46.47;;;;;;;2.47;100.00;102758.81;5064938;28;20401;-76
2023/01/21 07:36:01;;;;;;;125.22;44.70;;;;;;;2.12;100.00;102763.72;5055962;28;20036;-74
2023/01/21 07:38:27;;;;;;;151.27;45.75;;;;;;;2.28;100.00;102759.53;5056658;28;20032;-74
2023/01/21 07:40:52;;;;;;;120.65;42.45;;;;;;;2.06;100.00;102761.25;5056523;28;20036;-74
2023/01/21 07:43:18;;;;;;;129.55;45.47;;;;;;;1.99;100.00;102765.09;5057033;28;20052;-74
2023/01/21 07:45:43;;;;;;;117.38;42.67;;;;;;;2.01;100.00;102765.91;5056175;28;20032;-75
2023/01/21 07:48:09;;;;;;;145.30;47.15;;;;;;;2.18;100.00;102768.81;5056204;28;20025;-75
2023/01/21 07:50:35;;;;;;;135.73;46.03;;;;;;;2.35;100.00;102771.75;5072639;28;20020;-75
2023/01/21 07:53:01;;;;;;;163.82;59.03;;;;;;;2.49;100.00;102773.00;5072746;28;20514;-75
2023/01/21 07:55:27;;;;;;;138.00;49.00;;;;;;;2.51;100.00;102776.50;5055603;28;20027;-75
2023/01/21 07:57:55;;;;;;;128.52;44.08;;;;;;;2.42;100.00;102781.28;5054571;28;20028;-75
2023/01/21 08:00:22;;;;;;;127.22;42.70;;;;;;;2.13;100.00;102776.13;5055603;28;20056;-75
2023/01/21 08:02:55;;;;;;;125.13;43.78;;;;;;;2.00;100.00;102774.84;5046630;28;20020;-75
2023/01/21 08:05:23;;;;;;;132.70;44.33;;;;;;;1.89;100.00;102784.16;5035582;28;20108;-75
2023/01/21 08:07:50;;;;;;;134.13;45.33;;;;;;;1.95;100.00;102787.50;5068211;28;20017;-75
2023/01/21 08:10:17;;;;;;;137.33;45.20;;;;;;;1.87;100.00;102785.97;5068290;28;20025;-75
2023/01/21 08:12:42;;;;;;;141.07;49.30;;;;;;;2.02;100.00;102794.34;5035048;28;20029;-75
2023/01/21 08:15:09;;;;;;;151.75;51.70;;;;;;;2.13;100.00;102786.81;5036090;28;20090;-74
2023/01/21 08:17:38;;;;;;;151.35;49.42;;;;;;;2.30;100.00;102784.41;5050218;28;20060;-75
2023/01/21 08:20:05;;;;;;;148.43;47.38;;;;;;;2.33;100.00;102789.63;5079981;28;20481;-75
2023/01/21 08:22:30;;;;;;;145.90;48.63;;;;;;;2.38;100.00;102798.34;5055259;28;20085;-75
2023/01/21 08:24:57;;;;;;;119.22;42.47;;;;;;;2.41;100.00;102792.91;5056843;28;20055;-75
2023/01/21 08:27:23;;;;;;;127.80;45.03;;;;;;;2.63;100.00;102797.41;5064743;28;20463;-75
2023/01/21 08:29:48;;;;;;;135.65;46.53;;;;;;;2.77;100.00;102795.06;5055072;28;20040;-75
2023/01/21 08:32:14;;;;;;;146.38;50.28;;;;;;;2.77;100.00;102799.53;5073022;28;20046;-74
2023/01/21 08:34:39;;;;;;;115.40;42.72;;;;;;;2.71;100.00;102808.66;5064612;28;20068;-74
2023/01/21 08:37:05;;;;;;;126.38;46.25;;;;;;;2.63;100.00;102818.81;5053566;28;20042;-75
2023/01/21 08:39:30;;;;;;;126.88;43.47;;;;;;;2.54;100.00;102811.13;5054742;28;20444;-76
2023/01/21 08:41:55;;;;;;;130.10;48.08;;;;;;;2.50;100.00;102817.53;5070153;28;20068;-75
2023/01/21 08:44:21;;;;;;;122.15;43.60;;;;;;;2.45;100.00;102815.03;5035482;28;20024;-76
2023/01/21 08:46:46;;;;;;;105.68;42.50;;;;;;;2.45;100.00;102815.88;5051415;28;20024;-75
2023/01/21 08:49:12;;;;;;;139.35;44.38;;;;;;;2.46;100.00;102822.09;5068634;28;20040;-75
2023/01/21 08:51:37;;;;;;;139.52;47.80;;;;;;;2.65;100.00;102827.63;5055495;28;20105;-75
2023/01/21 08:54:04;;;;;;;126.20;45.22;;;;;;;2.57;100.00;102829.72;5055405;28;20374;-75
2023/01/21 08:56:29;;;;;;;110.95;44.40;;;;;;;2.31;100.00;102844.94;5055714;28;20070;-75
2023/01/21 08:58:56;;;;;;;118.78;42.75;;;;;;;2.44;100.00;102846.22;5073464;28;20125;-75
2023/01/21 09:01:23;;;;;;;135.32;47.35;;;;;;;2.64;100.00;102849.97;5071889;28;20055;-75
2023/01/21 09:03:53;;;;;;;145.57;48.75;;;;;;;2.71;100.00;102856.81;5055057;28;20031;-76
2023/01/21 09:06:19;;;;;;;144.48;51.63;;;;;;;2.88;100.00;102857.03;5047874;28;20036;-76
2023/01/21 09:08:44;;;;;;;128.38;46.30;;;;;;;2.92;100.00;102866.69;5067223;28;20024;-76
2023/01/21 09:11:10;;;;;;;124.07;44.70;;;;;;;2.77;100.00;102869.09;5055518;28;20055;-75
2023/01/21 09:13:37;;;;;;;130.50;47.67;;;;;;;2.51;100.00;102862.06;5055304;28;20115;-75
2023/01/21 09:16:27;;;;;;;137.00;46.03;;;;;;;2.44;100.00;102872.97;5073035;28;20028;-74
2023/01/21 09:18:53;;;;;;;148.82;47.05;;;;;;;2.33;100.00;102869.81;5058851;28;20041;-75
2023/01/21 09:21:18;;;;;;;140.77;48.65;;;;;;;2.35;100.00;102878.66;5064804;28;20040;-74
2023/01/21 09:23:43;;;;;;;144.40;47.55;;;;;;;2.26;100.00;102878.97;5074508;28;20020;-75
2023/01/21 09:26:14;;;;;;;145.60;48.25;;;;;;;2.17;100.00;102882.00;5049023;28;20032;-74
2023/01/21 09:28:41;;;;;;;135.65;43.10;;;;;;;2.28;100.00;102887.84;5062993;28;20070;-75
2023/01/21 09:31:14;;;;;;;149.43;46.47;;;;;;;2.40;100.00;102898.06;5048715;28;20012;-74
2023/01/21 09:39:49;;;;;;;140.68;44.40;;;;;;;2.69;100.00;102894.31;5058054;22;20056;-75
2023/01/21 09:42:25;;;;;;;134.43;45.20;;;;;;;2.65;100.00;102907.88;5030977;28;20037;-75
2023/01/21 09:44:54;;;;;;;141.32;46.30;;;;;;;2.66;100.00;102898.91;5024593;28;20096;-75
2023/01/21 09:47:29;;;;;;;118.72;42.90;;;;;;;2.77;100.00;102904.72;5015821;28;20109;-74
2023/01/21 09:49:59;;;;;;;119.90;41.03;;;;;;;2.80;100.00;102915.31;5036357;28;20389;-74
2023/01/21 09:52:41;;;;;;;110.20;40.30;;;;;;;2.62;100.00;102913.34;5042930;28;20481;-75
2023/01/21 09:55:19;;;;;;;105.00;39.53;;;;;;;2.76;100.00;102915.50;5032634;28;20373;-74
2023/01/21 09:58:03;;;;;;;111.90;41.05;;;;;;;2.78;100.00;102909.16;5039153;28;20071;-74
2023/01/21 10:00:35;;;;;;;113.57;43.92;;;;;;;3.07;100.00;102920.56;5027766;28;20037;-74
2023/01/21 10:03:12;;;;;;;99.22;37.72;;;;;;;3.05;100.00;102914.38;5022886;28;20040;-74
2023/01/21 10:05:44;;;;;;;98.10;39.47;;;;;;;2.90;100.00;102929.22;5032984;28;20047;-74
2023/01/21 10:08:20;;;;;;;;;;;;;;;2.99;100.00;102934.22;5027005;28;20071;-75
2023/01/21 10:11:08;;;;;;;82.47;33.45;;;;;;;3.13;100.00;102931.00;5043790;28;20391;-75
2023/01/21 10:13:39;;;;;;;74.53;31.58;;;;;;;3.28;100.00;102925.06;5022372;28;20052;-74
2023/01/21 10:16:26;;;;;;;87.15;35.15;;;;;;;3.30;100.00;102927.66;5053232;28;20020;-75
2023/01/21 10:18:53;;;;;;;89.63;36.00;;;;;;;3.30;100.00;102927.66;5020225;28;20032;-74
2023/01/21 10:21:29;;;;;;;89.47;35.70;;;;;;;3.22;100.00;102936.00;5036873;28;20090;-74
2023/01/21 10:24:03;;;;;;;84.20;34.92;;;;;;;3.25;100.00;102936.75;5029671;28;20070;-73
2023/01/21 10:26:29;;;;;;;77.90;32.95;;;;;;;3.38;100.00;102931.78;5036493;28;20393;-73
2023/01/21 10:28:55;;;;;;;79.70;34.67;;;;;;;3.41;100.00;102923.63;5027023;28;20017;-74
2023/01/21 10:31:31;;;;;;;80.63;34.10;;;;;;;3.29;100.00;102926.81;5030293;28;20017;-75
2023/01/21 10:33:57;;;;;;;73.75;32.08;;;;;;;3.17;100.00;102921.94;5030040;28;20048;-75
2023/01/21 10:36:46;;;;;;;75.35;32.47;;;;;;;3.14;100.00;102927.41;5029048;28;20058;-73
2023/01/21 10:39:37;;;;;;;79.38;32.90;;;;;;;3.35;100.00;102926.56;5022573;28;20485;-73
2023/01/21 10:42:15;;;;;;;79.40;32.83;;;;;;;3.20;100.00;102916.47;5030094;28;20040;-73
2023/01/21 10:44:47;;;;;;;73.72;32.50;;;;;;;2.83;100.00;102911.66;5043997;28;20021;-73
2023/01/21 10:47:30;;;;;;;65.97;29.17;;;;;;;2.87;100.00;102903.47;5030993;28;20025;-73
2023/01/21 10:50:10;;;;;;;74.93;32.17;;;;;;;3.04;100.00;102904.59;5039700;28;20032;-74
2023/01/21 10:52:44;;;;;;;69.10;29.83;;;;;;;3.08;100.00;102903.56;5051819;28;20472;-73
2023/01/21 10:55:39;;;;;;;71.85;31.17;;;;;;;2.91;100.00;102910.44;5040984;28;20029;-71
2023/01/21 10:58:18;;;;;;;72.28;31.98;;;;;;;3.09;100.00;102907.97;5033658;28;20546;-73
2023/01/21 11:00:48;;;;;;;69.28;28.65;;;;;;;3.23;100.00;102910.97;5030821;28;20017;-73
2023/01/21 11:03:23;;;;;;;68.43;30.05;;;;;;;3.34;100.00;102898.03;5041355;28;20083;-73
2023/01/21 11:05:48;;;;;;;70.00;30.67;;;;;;;3.08;100.00;102898.22;5046619;28;20044;-73
2023/01/21 11:08:20;;;;;;;66.03;28.90;;;;;;;3.24;100.00;102896.66;5036650;28;20017;-71
2023/01/21 11:10:48;;;;;;;62.20;28.90;;;;;;;3.30;100.00;102896.41;5043759;28;20059;-72
2023/01/21 11:13:14;;;;;;;60.08;27.48;;;;;;;3.38;100.00;102899.66;5043822;28;20024;-74
2023/01/21 11:15:45;;;;;;;60.15;26.65;;;;;;;3.12;100.00;102891.78;5034067;28;20023;-72
2023/01/21 11:18:29;;;;;;;58.08;24.92;;;;;;;3.25;100.00;102893.03;5038012;28;20017;-72
2023/01/21 11:21:01;;;;;;;54.92;23.98;;;;;;;3.46;100.00;102896.69;5038658;28;20025;-74
2023/01/21 11:23:34;;;;;;;53.97;25.70;;;;;;;3.45;100.00;102900.25;5030964;28;20021;-74
2023/01/21 11:26:17;;;;;;;48.33;23.83;;;;;;;3.61;100.00;102892.50;5043801;28;20032;-72
2023/01/21 11:28:42;;;;;;;49.72;24.00;;;;;;;3.59;100.00;102902.41;5035408;28;20078;-74